Time;durP1;ratioP1;P1;durP2;ratioP2;P2;SDS_P1;SDS_P2;PMS_P1;PMS_P2;Temp;Humidity;BMP_temperature;BMP_pressure;BME280_temperature;BME280_humidity;BME280_pressure;Samples;Min_cycle;Max_cycle;Signal;HPM_P1;HPM_P2
2024/01/13 00:00:32;;;;;;;1.17;1.17;;;;;;;-2.85;94.80;100464.72;5085966;28;20020;-67
2024/01/13 00:02:57;;;;;;;0.70;0.70;;;;;;;-2.80;94.83;100444.63;5087142;28;20465;-67
2024/01/13 00:05:22;;;;;;;0.50;0.50;;;;;;;-2.67;94.79;100438.44;5087081;28;20050;-69
2024/01/13 00:07:48;;;;;;;1.13;1.13;;;;;;;-2.59;94.43;100421.00;5087043;28;20024;-68
2024/01/13 00:10:13;;;;;;;0.50;0.50;;;;;;;-2.58;94.36;100412.56;5086726;28;20017;-68
2024/01/13 00:12:38;;;;;;;0.90;0.90;;;;;;;-2.54;94.32;100415.31;5085526;28;20166;-69
2024/01/13 00:15:04;;;;;;;1.27;1.17;;;;;;;-2.54;94.03;100399.19;5085500;28;20067;-69
2024/01/13 00:17:30;;;;;;;2.90;1.15;;;;;;;-2.47;94.31;100419.00;5087117;28;20448;-69
2024/01/13 00:19:55;;;;;;;0.65;0.65;;;;;;;-2.52;94.50;100403.53;5085449;28;20025;-68
2024/01/13 00:22:20;;;;;;;0.80;0.80;;;;;;;-2.40;94.66;100404.91;5086795;28;20055;-67
2024/01/13 00:24:45;;;;;;;0.50;0.50;;;;;;;-2.35;94.61;100412.72;5086792;28;20040;-68
2024/01/13 00:27:11;;;;;;;1.40;1.13;;;;;;;-2.34;94.60;100412.78;5085342;28;20016;-67
2024/01/13 00:29:37;;;;;;;0.50;0.50;;;;;;;-2.26;94.72;100396.22;5086588;28;20028;-67
2024/01/13 00:32:03;;;;;;;1.63;1.52;;;;;;;-2.28;94.59;100397.81;5086619;28;20567;-70
2024/01/13 00:34:28;;;;;;;1.05;1.05;;;;;;;-2.19;94.74;100388.84;5085216;28;20040;-69
2024/01/13 00:36:54;;;;;;;0.77;0.77;;;;;;;-2.15;94.31;100376.31;5086468;28;20435;-69
2024/01/13 00:39:19;;;;;;;0.40;0.40;;;;;;;-2.10;94.22;100363.78;5084309;28;20017;-68
2024/01/13 00:41:44;;;;;;;0.93;0.80;;;;;;;-1.97;93.62;100349.03;5086684;28;20046;-68
2024/01/13 00:44:10;;;;;;;1.33;1.25;;;;;;;-2.14;93.79;100336.50;5086378;28;20060;-68
2024/01/13 00:46:35;;;;;;;0.50;0.50;;;;;;;-2.13;94.32;100333.13;5086316;28;20021;-68
2024/01/13 00:49:01;;;;;;;0.50;0.50;;;;;;;-2.09;94.53;100322.28;5086684;28;20048;-69
2024/01/13 00:51:26;;;;;;;0.60;0.60;;;;;;;-2.08;94.41;100324.03;5084969;28;20064;-68
2024/01/13 00:53:52;;;;;;;1.00;1.00;;;;;;;-2.07;94.51;100304.53;5086185;28;20031;-68
2024/01/13 00:56:17;;;;;;;0.43;0.43;;;;;;;-2.07;94.82;100305.41;5086078;28;20024;-68
2024/01/13 00:58:42;;;;;;;0.50;0.50;;;;;;;-2.03;94.91;100302.16;5086261;28;20091;-68
2024/01/13 01:01:08;;;;;;;1.13;0.60;;;;;;;-1.97;94.77;100287.97;5086201;28;20024;-69
2024/01/13 01:03:33;;;;;;;3.15;1.25;;;;;;;-2.01;94.75;100272.59;5085956;28;20040;-67
2024/01/13 01:05:58;;;;;;;0.90;0.90;;;;;;;-1.88;94.51;100270.53;5084776;28;20380;-67
2024/01/13 01:08:24;;;;;;;0.57;0.57;;;;;;;-1.88;94.59;100261.22;5084668;28;20103;-67
2024/01/13 01:10:49;;;;;;;0.73;0.73;;;;;;;-1.91;94.92;100255.13;5085978;28;20477;-68
2024/01/13 01:13:14;;;;;;;0.50;0.50;;;;;;;-1.85;94.80;100241.81;5085788;28;20027;-67
2024/01/13 01:15:40;;;;;;;1.70;1.25;;;;;;;-1.85;94.72;100226.53;5085679;28;20036;-67
2024/01/13 01:18:05;;;;;;;0.95;0.95;;;;;;;-1.77;94.72;100225.13;5085851;28;20028;-67
2024/01/13 01:20:31;;;;;;;0.50;0.50;;;;;;;-1.75;94.72;100218.44;5085833;28;20048;-67
2024/01/13 01:22:56;;;;;;;0.50;0.50;;;;;;;-1.72;94.67;100207.50;5084260;28;20031;-67
2024/01/13 01:25:21;;;;;;;0.80;0.80;;;;;;;-1.77;94.88;100204.78;5085511;28;20016;-68
2024/01/13 01:27:47;;;;;;;0.50;0.50;;;;;;;-1.69;94.78;100195.75;5085495;28;20028;-68
2024/01/13 01:30:12;;;;;;;0.60;0.60;;;;;;;-1.67;94.95;100198.38;5085666;28;20085;-68
2024/01/13 01:32:38;;;;;;;0.50;0.50;;;;;;;-1.66;95.11;100192.47;5085649;28;20030;-67
2024/01/13 01:35:04;;;;;;;1.40;0.85;;;;;;;-1.65;94.93;100176.38;5085604;28;20038;-67
2024/01/13 01:37:29;;;;;;;0.50;0.50;;;;;;;-1.62;95.10;100171.41;5085162;28;20096;-67
2024/01/13 01:39:54;;;;;;;1.75;1.58;;;;;;;-1.63;95.10;100165.44;5085363;28;20036;-67
2024/01/13 01:42:20;;;;;;;0.80;0.80;;;;;;;-1.52;94.95;100154.81;5084118;28;20380;-67
2024/01/13 01:44:45;;;;;;;0.57;0.57;;;;;;;-1.56;94.96;100153.81;5085661;28;20065;-67
2024/01/13 01:47:12;;;;;;;0.88;0.88;;;;;;;-1.56;95.27;100158.03;5085406;28;20082;-67
2024/01/13 01:49:38;;;;;;;0.43;0.43;;;;;;;-1.55;95.34;100150.44;5084695;28;20031;-68
2024/01/13 01:52:04;;;;;;;0.73;0.73;;;;;;;-1.55;95.50;100155.53;5084780;28;20364;-68
2024/01/13 01:54:30;;;;;;;1.30;1.20;;;;;;;-1.47;95.62;100158.38;5085122;28;20045;-68
2024/01/13 01:56:57;;;;;;;4.22;2.15;;;;;;;-1.42;95.70;100163.66;5085392;28;20048;-67
2024/01/13 01:59:24;;;;;;;5.88;1.50;;;;;;;-1.32;95.73;100169.94;5083836;28;20021;-67
2024/01/13 02:01:50;;;;;;;0.80;0.75;;;;;;;-1.30;95.72;100160.66;5085263;28;20441;-68
2024/01/13 02:04:16;;;;;;;1.25;1.17;;;;;;;-1.26;95.66;100147.22;5083887;28;20090;-68
2024/01/13 02:06:42;;;;;;;0.82;0.82;;;;;;;-1.22;95.58;100138.03;5085400;28;20530;-67
2024/01/13 02:09:07;;;;;;;1.73;1.63;;;;;;;-1.17;95.60;100123.78;5084805;28;20032;-67
2024/01/13 02:11:33;;;;;;;0.50;0.50;;;;;;;-1.12;95.39;100112.91;5084200;28;20035;-68
2024/01/13 02:13:59;;;;;;;0.50;0.50;;;;;;;-1.10;95.38;100112.13;5085045;28;20047;-68
2024/01/13 02:16:24;;;;;;;0.50;0.50;;;;;;;-1.14;95.56;100086.53;5084935;28;20020;-70
2024/01/13 02:18:49;;;;;;;1.40;1.30;;;;;;;-1.06;95.39;100091.00;5085039;28;20035;-70
2024/01/13 02:21:15;;;;;;;6.20;1.73;;;;;;;-1.08;95.88;100068.03;5083737;28;20021;-69
2024/01/13 02:23:40;;;;;;;0.50;0.50;;;;;;;-1.03;96.00;100046.13;5084924;28;20025;-68
2024/01/13 02:26:06;;;;;;;0.60;0.60;;;;;;;-0.98;95.64;100027.56;5084914;28;20027;-69
2024/01/13 02:28:31;;;;;;;1.98;1.42;;;;;;;-0.96;95.78;100025.94;5084866;28;20035;-68
2024/01/13 02:30:57;;;;;;;0.52;0.52;;;;;;;-0.91;95.99;100030.34;5083530;28;20027;-69
2024/01/13 02:33:23;;;;;;;1.98;1.52;;;;;;;-1.01;96.34;100006.25;5083684;28;20024;-68
2024/01/13 02:35:48;;;;;;;3.25;1.40;;;;;;;-0.84;96.25;100028.88;5084832;28;20020;-67
2024/01/13 02:38:13;;;;;;;3.05;1.30;;;;;;;-0.81;96.16;100008.56;5083281;28;20048;-68
2024/01/13 02:40:39;;;;;;;1.10;0.80;;;;;;;-0.75;95.76;99997.69;5084545;28;20028;-67
2024/01/13 02:43:04;;;;;;;1.88;1.77;;;;;;;-0.73;96.15;99990.09;5083258;28;20052;-68
2024/01/13 02:45:30;;;;;;;0.68;0.68;;;;;;;-0.72;96.26;99976.56;5083103;28;20085;-68
2024/01/13 02:48:00;;;;;;;0.55;0.55;;;;;;;-0.66;96.53;99980.16;5083395;28;20024;-67
2024/01/13 02:50:26;;;;;;;0.57;0.57;;;;;;;-0.56;96.58;99976.19;5084652;28;20048;-68
2024/01/13 02:52:51;;;;;;;1.95;1.02;;;;;;;-0.51;96.45;99982.28;5084796;28;20025;-67
2024/01/13 02:55:16;;;;;;;7.25;1.42;;;;;;;-0.43;96.71;99972.31;5083078;28;20081;-67
2024/01/13 02:57:42;;;;;;;1.00;0.98;;;;;;;-0.40;96.89;99967.31;5083039;28;20028;-67
2024/01/13 03:00:09;;;;;;;4.90;1.58;;;;;;;-0.40;97.00;99952.00;5084542;28;20043;-67
2024/01/13 03:02:34;;;;;;;1.42;1.35;;;;;;;-0.31;97.23;99948.88;5086419;28;20052;-69
2024/01/13 03:05:00;;;;;;;2.30;1.20;;;;;;;-0.26;96.98;99943.88;5087198;28;20483;-70
2024/01/13 03:07:26;;;;;;;2.63;2.10;;;;;;;-0.20;97.08;99932.97;5087089;28;20024;-70
2024/01/13 03:09:51;;;;;;;0.50;0.50;;;;;;;-0.20;97.41;99925.31;5088138;28;20024;-71
2024/01/13 03:12:16;;;;;;;1.05;0.70;;;;;;;-0.19;97.19;99917.72;5086867;28;20049;-72
2024/01/13 03:14:42;;;;;;;0.63;0.63;;;;;;;-0.14;97.17;99917.84;5088496;28;20453;-72
2024/01/13 03:17:07;;;;;;;0.65;0.65;;;;;;;-0.11;97.27;99923.03;5086947;28;20337;-72
2024/01/13 03:19:32;;;;;;;1.38;0.95;;;;;;;-0.02;97.13;99918.16;5088095;28;20028;-70
2024/01/13 03:21:58;;;;;;;0.50;0.50;;;;;;;-0.03;96.99;99905.38;5088248;28;20025;-70
2024/01/13 03:24:23;;;;;;;2.83;1.63;;;;;;;-0.01;97.24;99891.84;5087849;28;20092;-70
2024/01/13 03:26:48;;;;;;;0.70;0.70;;;;;;;-0.03;96.96;99883.28;5088215;28;20082;-70
2024/01/13 03:29:14;;;;;;;0.90;0.90;;;;;;;0.01;97.18;99865.47;5086685;28;20020;-70
2024/01/13 03:31:39;;;;;;;1.15;1.15;;;;;;;0.05;97.18;99867.31;5088039;28;20027;-69
2024/01/13 03:34:04;;;;;;;0.60;0.60;;;;;;;0.09;97.26;99858.88;5087926;28;20025;-69
2024/01/13 03:36:30;;;;;;;0.88;0.82;;;;;;;0.07;97.22;99863.09;5087650;28;20048;-70
2024/01/13 03:38:56;;;;;;;12.10;1.13;;;;;;;0.11;97.44;99857.25;5087515;28;20062;-69
2024/01/13 03:41:22;;;;;;;1.15;1.15;;;;;;;0.05;97.47;99850.28;5087781;28;20039;-71
2024/01/13 03:43:49;;;;;;;0.63;0.63;;;;;;;0.07;97.51;99852.88;5087481;28;20021;-70
2024/01/13 03:46:14;;;;;;;1.20;1.20;;;;;;;0.10;97.37;99840.19;5087610;28;20016;-69
2024/01/13 03:48:40;;;;;;;4.47;2.67;;;;;;;0.06;97.86;99843.50;5087614;28;20027;-71
2024/01/13 03:51:05;;;;;;;1.27;0.90;;;;;;;0.11;97.66;99844.50;5087594;28;20023;-70
2024/01/13 03:53:31;;;;;;;0.82;0.75;;;;;;;0.12;97.84;99843.66;5087380;28;20046;-69
2024/01/13 03:55:57;;;;;;;11.15;2.15;;;;;;;0.17;98.13;99841.22;5085867;28;20059;-70
2024/01/13 03:58:22;;;;;;;0.60;0.60;;;;;;;0.15;98.16;99835.19;5087575;28;20016;-70
2024/01/13 04:00:48;;;;;;;1.83;1.67;;;;;;;0.18;98.20;99842.94;5087217;28;20032;-71
2024/01/13 04:03:13;;;;;;;1.42;1.17;;;;;;;0.18;98.15;99832.72;5087307;28;20025;-71
2024/01/13 04:05:38;;;;;;;1.40;0.80;;;;;;;0.20;98.27;99825.97;5085691;28;20051;-71
2024/01/13 04:08:04;;;;;;;3.33;1.30;;;;;;;0.21;98.36;99813.25;5087318;28;20029;-71
2024/01/13 04:10:29;;;;;;;2.15;2.05;;;;;;;0.18;98.42;99810.63;5085678;28;20024;-71
2024/01/13 04:12:59;;;;;;;0.75;0.60;;;;;;;0.21;98.70;99809.81;5086880;28;20031;-71
2024/01/13 04:15:25;;;;;;;9.48;1.25;;;;;;;0.22;98.66;99791.13;5086701;28;20070;-71
2024/01/13 04:17:50;;;;;;;0.68;0.68;;;;;;;0.21;98.64;99790.25;5086930;28;20021;-72
2024/01/13 04:20:15;;;;;;;0.50;0.50;;;;;;;0.26;98.66;99794.63;5086875;28;20036;-71
2024/01/13 04:22:41;;;;;;;5.30;1.25;;;;;;;0.26;98.77;99794.63;5087186;28;20020;-72
2024/01/13 04:25:06;;;;;;;0.55;0.55;;;;;;;0.30;98.72;99791.31;5086681;28;20081;-71
2024/01/13 04:27:34;;;;;;;0.63;0.63;;;;;;;0.30;98.88;99776.88;5086834;28;20020;-71
2024/01/13 04:30:00;;;;;;;3.60;1.05;;;;;;;0.28;98.82;99775.97;5086790;28;20056;-71
2024/01/13 04:32:25;;;;;;;1.02;1.00;;;;;;;0.32;98.92;99764.97;5086813;28;20032;-72
2024/01/13 04:34:50;;;;;;;0.50;0.50;;;;;;;0.30;98.88;99766.66;5086571;28;20024;-71
2024/01/13 04:37:16;;;;;;;0.60;0.60;;;;;;;0.30;99.12;99759.00;5086540;28;20044;-71
2024/01/13 04:39:41;;;;;;;0.50;0.50;;;;;;;0.36;99.35;99750.59;5086482;28;20492;-73
2024/01/13 04:42:06;;;;;;;7.43;0.70;;;;;;;0.40;99.49;99751.53;5086511;28;20074;-72
2024/01/13 04:44:32;;;;;;;1.65;0.82;;;;;;;0.42;99.44;99743.06;5086610;28;20020;-72
2024/01/13 04:46:58;;;;;;;0.60;0.60;;;;;;;0.52;99.53;99740.72;5085250;28;20031;-73
2024/01/13 04:49:23;;;;;;;0.88;0.88;;;;;;;0.49;99.86;99724.53;5086333;28;20499;-73
2024/01/13 04:51:49;;;;;;;0.60;0.60;;;;;;;0.59;100.00;99720.44;5085039;28;20024;-72
2024/01/13 04:54:14;;;;;;;1.45;1.35;;;;;;;0.68;100.00;99704.47;5084778;28;20027;-73
2024/01/13 04:56:40;;;;;;;1.50;1.40;;;;;;;0.78;100.00;99699.53;5086381;28;20027;-73
2024/01/13 04:59:05;;;;;;;0.50;0.50;;;;;;;0.88;100.00;99696.31;5086298;28;20032;-74
2024/01/13 05:01:30;;;;;;;0.57;0.57;;;;;;;0.91;100.00;99681.03;5086119;28;20017;-74
2024/01/13 05:03:56;;;;;;;0.50;0.50;;;;;;;1.03;100.00;99688.09;5086135;28;20054;-74
2024/01/13 05:06:21;;;;;;;0.50;0.50;;;;;;;1.09;100.00;99670.31;5084959;28;20024;-74
2024/01/13 05:08:47;;;;;;;0.40;0.40;;;;;;;1.16;100.00;99668.75;5085997;28;20379;-74
2024/01/13 05:11:12;;;;;;;0.50;0.50;;;;;;;1.18;100.00;99651.72;5085900;28;20020;-74
2024/01/13 05:13:37;;;;;;;0.63;0.63;;;;;;;1.32;100.00;99651.09;5085974;28;20055;-74
2024/01/13 05:16:03;;;;;;;0.80;0.80;;;;;;;1.43;100.00;99638.50;5085959;28;20021;-74
2024/01/13 05:18:28;;;;;;;0.50;0.50;;;;;;;1.53;100.00;99644.63;5085856;28;20473;-72
2024/01/13 05:20:54;;;;;;;0.50;0.50;;;;;;;1.59;100.00;99631.94;5085752;28;20032;-72
2024/01/13 05:23:19;;;;;;;1.65;1.45;;;;;;;1.68;100.00;99632.06;5084587;28;20468;-73
2024/01/13 05:25:44;;;;;;;0.50;0.50;;;;;;;1.70;100.00;99624.41;5084173;28;20047;-72
2024/01/13 05:28:10;;;;;;;0.50;0.50;;;;;;;1.81;100.00;99611.78;5085699;28;20023;-72
2024/01/13 05:30:35;;;;;;;0.45;0.45;;;;;;;1.90;100.00;99599.09;5085707;28;20549;-73
2024/01/13 05:33:04;;;;;;;1.10;1.10;;;;;;;2.02;100.00;99582.19;5085547;28;20025;-73
2024/01/13 05:35:29;;;;;;;0.47;0.47;;;;;;;2.07;100.00;99593.34;5085498;28;20052;-72
2024/01/13 05:37:54;;;;;;;4.45;1.83;;;;;;;2.16;100.00;99583.22;5085294;28;20484;-73
2024/01/13 05:40:24;;;;;;;0.50;0.50;;;;;;;2.31;100.00;99561.22;5085537;28;20028;-72
2024/01/13 05:42:49;;;;;;;0.50;0.50;;;;;;;2.44;100.00;99575.03;5085462;28;20073;-72
2024/01/13 05:45:14;;;;;;;3.05;1.60;;;;;;;2.54;100.00;99578.56;5085579;28;20480;-72
2024/01/13 05:47:40;;;;;;;0.40;0.40;;;;;;;2.58;100.00;99576.03;5085562;28;20524;-72
2024/01/13 05:50:05;;;;;;;0.40;0.40;;;;;;;2.63;100.00;99557.28;5085294;28;20020;-73
2024/01/13 05:52:32;;;;;;;4.90;0.75;;;;;;;2.73;100.00;99562.53;5083925;28;20047;-72
2024/01/13 05:54:57;;;;;;;1.30;1.20;;;;;;;2.71;100.00;99551.41;5085366;28;20021;-70
2024/01/13 05:57:23;;;;;;;0.73;0.68;;;;;;;2.77;100.00;99547.16;5085383;28;20381;-71
2024/01/13 05:59:48;;;;;;;0.40;0.40;;;;;;;2.80;100.00;99545.50;5085264;28;20048;-71
2024/01/13 06:02:14;;;;;;;1.08;1.05;;;;;;;2.85;100.00;99542.97;5085245;28;20024;-72
2024/01/13 06:04:40;;;;;;;1.33;1.00;;;;;;;2.86;100.00;99531.88;5085299;28;20024;-72
2024/01/13 06:07:05;;;;;;;5.20;1.10;;;;;;;2.79;100.00;99510.47;5085508;28;20488;-73
2024/01/13 06:09:31;;;;;;;17.13;0.98;;;;;;;2.81;100.00;99510.47;5083749;28;20024;-73
2024/01/13 06:11:57;;;;;;;0.60;0.60;;;;;;;2.80;100.00;99501.06;5083866;28;20028;-73
2024/01/13 06:14:22;;;;;;;0.50;0.50;;;;;;;2.82;100.00;99491.69;5085109;28;20051;-73
2024/01/13 06:16:47;;;;;;;0.40;0.40;;;;;;;2.82;100.00;99484.84;5085091;28;20025;-72
2024/01/13 06:19:13;;;;;;;3.40;1.15;;;;;;;2.79;100.00;99476.28;5085090;28;20443;-72
2024/01/13 06:21:42;;;;;;;0.43;0.43;;;;;;;2.81;100.00;99472.03;5083634;28;20024;-73
2024/01/13 06:24:11;;;;;;;3.42;2.42;;;;;;;2.69;100.00;99450.56;5084923;28;20052;-73
2024/01/13 06:26:41;;;;;;;0.40;0.40;;;;;;;2.77;100.00;99462.56;5085132;28;20043;-73
2024/01/13 06:29:07;;;;;;;3.30;2.53;;;;;;;2.82;100.00;99461.78;5085020;28;20032;-72
2024/01/13 06:31:33;;;;;;;1.35;1.15;;;;;;;2.77;100.00;99442.06;5085057;28;20032;-72
2024/01/13 06:33:59;;;;;;;1.48;0.52;;;;;;;2.75;100.00;99438.66;5084827;28;20346;-72
2024/01/13 06:36:24;;;;;;;1.90;1.77;;;;;;;2.68;100.00;99432.63;5084851;28;20549;-73
2024/01/13 06:38:49;;;;;;;2.25;1.05;;;;;;;2.71;100.00;99420.69;5088934;28;20029;-70
2024/01/13 06:41:15;;;;;;;6.25;1.10;;;;;;;2.75;100.00;99429.25;5089149;28;20016;-65
2024/01/13 06:43:40;;;;;;;0.70;0.70;;;;;;;2.73;100.00;99418.13;5089029;28;20020;-71
2024/01/13 06:46:07;;;;;;;0.63;0.63;;;;;;;2.70;100.00;99426.66;5089002;28;20412;-68
2024/01/13 06:48:32;;;;;;;4.88;1.30;;;;;;;2.64;100.00;99403.53;5088981;28;20074;-71
2024/01/13 06:50:58;;;;;;;0.73;0.73;;;;;;;2.67;100.00;99406.13;5087255;28;20036;-68
2024/01/13 06:53:23;;;;;;;1.30;1.20;;;;;;;2.68;100.00;99397.59;5087636;28;20098;-71
2024/01/13 06:55:48;;;;;;;0.70;0.70;;;;;;;2.64;100.00;99395.84;5088602;28;20024;-71
2024/01/13 06:58:14;;;;;;;0.40;0.40;;;;;;;2.62;100.00;99392.41;5089082;28;20024;-70
2024/01/13 07:00:39;;;;;;;1.33;1.30;;;;;;;2.62;100.00;99377.03;5088602;28;20051;-73
2024/01/13 07:03:04;;;;;;;0.65;0.65;;;;;;;2.65;100.00;99361.66;5088588;28;20314;-69
2024/01/13 07:05:30;;;;;;;2.50;0.75;;;;;;;2.64;100.00;99367.66;5087405;28;20024;-71
2024/01/13 07:07:59;;;;;;;1.38;0.73;;;;;;;2.60;100.00;99358.25;5088296;28;20016;-70
2024/01/13 07:10:25;;;;;;;7.05;1.85;;;;;;;2.59;100.00;99343.69;5088330;28;20088;-70
2024/01/13 07:12:50;;;;;;;0.40;0.40;;;;;;;2.68;100.00;99333.53;5088524;28;20024;-72
2024/01/13 07:15:16;;;;;;;9.27;3.13;;;;;;;2.68;100.00;99324.97;5088571;28;20044;-70
2024/01/13 07:17:41;;;;;;;0.47;0.47;;;;;;;2.72;100.00;99321.56;5088256;28;20048;-71
2024/01/13 07:20:07;;;;;;;0.50;0.50;;;;;;;2.72;100.00;99306.19;5088168;28;20028;-71
2024/01/13 07:22:33;;;;;;;8.95;2.60;;;;;;;2.75;100.00;99302.81;5088230;28;20032;-70
2024/01/13 07:25:02;;;;;;;0.65;0.65;;;;;;;2.72;100.00;99301.94;5087905;28;20392;-72
2024/01/13 07:27:27;;;;;;;0.50;0.50;;;;;;;2.73;100.00;99293.38;5088238;28;20025;-70
2024/01/13 07:29:53;;;;;;;0.50;0.50;;;;;;;2.71;100.00;99282.28;5088256;28;20028;-72
2024/01/13 07:32:21;;;;;;;1.85;1.75;;;;;;;2.72;100.00;99284.00;5088018;28;20121;-72
2024/01/13 07:34:46;;;;;;;1.58;0.95;;;;;;;2.66;100.00;99266.03;5088073;28;20021;-71
2024/01/13 07:37:12;;;;;;;1.10;1.10;;;;;;;2.63;100.00;99271.13;5087725;28;20048;-72
2024/01/13 07:39:37;;;;;;;0.43;0.43;;;;;;;2.65;100.00;99274.53;5086360;28;20040;-72
2024/01/13 07:42:03;;;;;;;3.30;1.30;;;;;;;2.62;100.00;99268.56;5087930;28;20036;-72
2024/01/13 07:44:28;;;;;;;15.63;1.73;;;;;;;2.60;100.00;99261.69;5086565;28;20020;-72
2024/01/13 07:46:58;;;;;;;1.13;0.55;;;;;;;2.55;100.00;99252.28;5087807;28;20024;-70
2024/01/13 07:49:24;;;;;;;0.43;0.43;;;;;;;2.51;100.00;99238.59;5086374;28;20071;-71
2024/01/13 07:51:53;;;;;;;1.30;1.20;;;;;;;2.55;100.00;99245.47;5087416;28;20118;-73
2024/01/13 07:54:18;;;;;;;0.57;0.57;;;;;;;2.49;100.00;99227.50;5086070;28;20029;-72
2024/01/13 07:56:44;;;;;;;0.50;0.50;;;;;;;2.44;100.00;99219.78;5087480;28;20016;-72
2024/01/13 07:59:09;;;;;;;0.50;0.50;;;;;;;2.38;100.00;99224.00;5108362;22;20044;-67
2024/01/13 08:01:34;;;;;;;0.50;0.50;;;;;;;2.34;100.00;99208.63;5107643;28;20046;-67
2024/01/13 08:04:00;;;;;;;0.50;0.50;;;;;;;2.34;100.00;99202.63;5107960;28;20028;-67
2024/01/13 08:06:25;;;;;;;8.18;4.78;;;;;;;2.36;100.00;99200.94;5108220;28;20027;-66
2024/01/13 08:08:50;;;;;;;0.50;0.50;;;;;;;2.36;100.00;99195.81;5108023;28;20020;-66
2024/01/13 08:11:16;;;;;;;0.50;0.50;;;;;;;2.39;100.00;99195.84;5107955;28;20027;-67
2024/01/13 08:13:41;;;;;;;4.38;0.98;;;;;;;2.35;100.00;99191.53;5108113;28;20035;-66
2024/01/13 08:16:08;;;;;;;0.45;0.45;;;;;;;2.39;100.00;99185.59;5107734;28;20027;-67
2024/01/13 08:18:34;;;;;;;1.15;1.05;;;;;;;2.40;100.00;99178.75;5108149;28;20055;-66
2024/01/13 08:20:59;;;;;;;0.55;0.55;;;;;;;2.44;100.00;99167.69;5106916;28;20016;-68
2024/01/13 08:23:24;;;;;;;0.70;0.68;;;;;;;2.41;100.00;99167.66;5108016;28;20020;-67
2024/01/13 08:25:50;;;;;;;0.40;0.40;;;;;;;2.43;100.00;99164.25;5106298;28;20031;-67
2024/01/13 08:28:15;;;;;;;0.47;0.47;;;;;;;2.44;100.00;99157.44;5107851;28;20016;-67
2024/01/13 08:30:40;;;;;;;2.75;1.48;;;;;;;2.42;100.00;99139.50;5107888;28;20055;-67
2024/01/13 08:33:06;;;;;;;0.45;0.45;;;;;;;2.46;100.00;99150.63;5106553;28;20411;-67
2024/01/13 08:35:31;;;;;;;0.50;0.50;;;;;;;2.44;100.00;99150.63;5106093;28;20024;-68
2024/01/13 08:37:56;;;;;;;0.40;0.40;;;;;;;2.42;100.00;99133.50;5107673;28;20031;-67
2024/01/13 08:40:22;;;;;;;0.65;0.65;;;;;;;2.39;100.00;99131.81;5107489;28;20024;-68
2024/01/13 08:42:49;;;;;;;4.55;1.42;;;;;;;2.40;100.00;99127.50;5106357;28;20024;-67
2024/01/13 08:45:15;;;;;;;0.43;0.43;;;;;;;2.35;100.00;99119.81;5107639;28;20075;-69
2024/01/13 08:47:40;;;;;;;0.40;0.40;;;;;;;2.42;100.00;99121.56;5107494;28;20034;-68
2024/01/13 08:50:06;;;;;;;0.40;0.40;;;;;;;2.43;100.00;99123.25;5106150;28;20022;-68
2024/01/13 08:52:31;;;;;;;0.50;0.50;;;;;;;2.39;100.00;99090.81;5106032;28;20028;-67
2024/01/13 08:54:57;;;;;;;0.57;0.57;;;;;;;2.34;100.00;99089.94;5107229;28;20054;-68
2024/01/13 08:57:22;;;;;;;0.52;0.52;;;;;;;2.39;100.00;99083.13;5107427;28;20022;-68
2024/01/13 08:59:47;;;;;;;0.50;0.50;;;;;;;2.41;100.00;99091.66;5105321;28;20064;-69
2024/01/13 09:02:13;;;;;;;0.40;0.40;;;;;;;2.47;100.00;99096.84;5105765;28;20060;-67
2024/01/13 09:04:38;;;;;;;0.80;0.80;;;;;;;2.46;100.00;99079.72;5107182;28;20032;-67
2024/01/13 09:07:04;;;;;;;1.15;0.68;;;;;;;2.33;100.00;99052.38;5107095;28;20024;-67
2024/01/13 09:09:29;;;;;;;2.75;2.15;;;;;;;2.48;100.00;99075.47;5106799;28;20139;-68
2024/01/13 09:11:55;;;;;;;7.22;1.02;;;;;;;2.52;100.00;99067.78;5106974;28;20467;-66
2024/01/13 09:14:20;;;;;;;0.50;0.50;;;;;;;2.55;100.00;99048.16;5106634;28;20042;-67
2024/01/13 09:16:46;;;;;;;0.47;0.47;;;;;;;2.56;100.00;99039.63;5106938;28;20099;-67
2024/01/13 09:19:11;;;;;;;1.20;0.77;;;;;;;2.64;100.00;99062.69;5105528;28;20455;-67
2024/01/13 09:21:37;;;;;;;0.50;0.50;;;;;;;2.65;100.00;99051.59;5105478;28;20118;-67
2024/01/13 09:24:03;;;;;;;0.55;0.55;;;;;;;2.65;100.00;99031.09;5106664;28;20024;-68
2024/01/13 09:26:29;;;;;;;7.97;1.30;;;;;;;2.68;100.00;99036.25;5105093;28;20040;-67
2024/01/13 09:28:54;;;;;;;0.55;0.55;;;;;;;2.71;100.00;99033.69;5106890;28;20019;-68
2024/01/13 09:31:19;;;;;;;0.60;0.60;;;;;;;2.75;100.00;99023.44;5106647;28;20020;-67
2024/01/13 09:33:45;;;;;;;0.40;0.40;;;;;;;2.78;100.00;99023.44;5105371;28;20024;-67
2024/01/13 09:36:10;;;;;;;8.38;2.63;;;;;;;2.76;100.00;99010.63;5106707;28;20069;-67
2024/01/13 09:38:37;;;;;;;1.30;0.70;;;;;;;2.81;100.00;99008.06;5105349;28;20104;-68
2024/01/13 09:41:02;;;;;;;13.15;2.50;;;;;;;2.80;100.00;99007.19;5106412;28;20028;-67
2024/01/13 09:43:37;;;;;;;1.60;1.35;;;;;;;2.83;100.00;98999.50;5106425;28;20083;-68
2024/01/13 09:46:02;;;;;;;3.47;1.23;;;;;;;2.83;100.00;98996.94;5105238;28;20037;-68
2024/01/13 09:48:28;;;;;;;2.38;2.17;;;;;;;2.89;100.00;98993.50;5105093;28;20032;-68
2024/01/13 09:50:55;;;;;;;4.15;3.25;;;;;;;2.92;100.00;98996.09;5106257;28;20024;-69
2024/01/13 09:53:23;;;;;;;5.10;1.13;;;;;;;2.95;100.00;98990.97;5106221;28;20024;-68
2024/01/13 09:55:55;;;;;;;0.50;0.50;;;;;;;2.89;100.00;98988.38;5104716;28;20459;-67
2024/01/13 09:58:20;;;;;;;1.73;1.63;;;;;;;2.91;100.00;98975.56;5104714;28;20047;-68
2024/01/13 10:00:47;;;;;;;0.93;0.93;;;;;;;2.89;100.00;98983.25;5106239;28;20039;-68
2024/01/13 10:03:13;;;;;;;1.15;1.13;;;;;;;2.89;100.00;98967.03;5106158;28;20102;-68
2024/01/13 10:05:38;;;;;;;23.17;2.03;;;;;;;2.87;100.00;98969.59;5106115;28;20027;-68
2024/01/13 10:08:04;;;;;;;6.78;1.48;;;;;;;2.86;100.00;98957.63;5106086;28;20073;-68
2024/01/13 10:10:32;;;;;;;3.75;1.23;;;;;;;2.89;100.00;98954.22;5105918;28;20106;-68
2024/01/13 10:12:57;;;;;;;0.50;0.50;;;;;;;2.88;100.00;98958.50;5105256;28;20028;-68
2024/01/13 10:15:22;;;;;;;6.35;1.67;;;;;;;2.90;100.00;98954.22;5106093;28;20024;-69
2024/01/13 10:17:51;;;;;;;0.73;0.73;;;;;;;2.94;100.00;98948.22;5105942;28;20452;-68
2024/01/13 10:20:17;;;;;;;6.32;2.15;;;;;;;2.91;100.00;98932.84;5105998;28;20107;-68
2024/01/13 10:22:42;;;;;;;26.35;2.95;;;;;;;2.93;100.00;98931.16;5104778;28;20371;-69
2024/01/13 10:25:08;;;;;;;0.65;0.65;;;;;;;2.97;100.00;98927.72;5105919;28;20027;-68
2024/01/13 10:27:38;;;;;;;5.93;2.25;;;;;;;3.00;100.00;98921.75;5105821;28;20020;-68
2024/01/13 10:30:07;;;;;;;6.57;1.83;;;;;;;3.01;100.00;98923.44;5105984;28;20074;-68
2024/01/13 10:32:33;;;;;;;3.22;2.97;;;;;;;3.08;100.00;98919.16;5105738;28;20016;-68
2024/01/13 10:34:59;;;;;;;2.90;2.05;;;;;;;3.11;100.00;98914.03;5105800;28;20028;-68
2024/01/13 10:37:26;;;;;;;14.57;1.13;;;;;;;3.14;100.00;98924.28;5105775;28;20020;-68
2024/01/13 10:39:51;;;;;;;10.15;1.85;;;;;;;3.09;100.00;98905.47;5104528;28;20016;-69
2024/01/13 10:42:20;;;;;;;11.00;0.95;;;;;;;3.16;100.00;98908.88;5105952;28;20030;-69
2024/01/13 10:44:57;;;;;;;3.83;1.63;;;;;;;3.12;100.00;98918.28;5104654;28;20024;-68
2024/01/13 10:47:31;;;;;;;1.83;0.98;;;;;;;3.13;100.00;98906.34;5104403;28;20024;-69
2024/01/13 10:49:57;;;;;;;0.68;0.63;;;;;;;3.11;100.00;98908.91;5105846;28;20480;-68
2024/01/13 10:53:04;;;;;;;1.20;1.15;;;;;;;3.12;100.00;98905.47;5105584;28;20031;-67
2024/01/13 10:55:31;;;;;;;1.38;1.38;;;;;;;3.15;100.00;98895.19;5098173;28;20613;-69
2024/01/13 10:57:59;;;;;;;1.63;1.30;;;;;;;3.16;100.00;98889.25;5105276;28;20048;-69
2024/01/13 11:00:25;;;;;;;0.55;0.55;;;;;;;3.15;100.00;98894.34;5105579;28;20024;-69
2024/01/13 11:02:52;;;;;;;1.75;0.90;;;;;;;3.18;100.00;98884.09;5105688;28;20039;-69
2024/01/13 11:05:19;;;;;;;5.05;4.53;;;;;;;3.35;100.00;98891.75;5104256;28;20032;-69
2024/01/13 11:07:44;;;;;;;0.88;0.88;;;;;;;3.34;100.00;98882.31;5105571;28;20057;-69
2024/01/13 11:10:17;;;;;;;1.05;1.00;;;;;;;3.44;100.00;98870.31;5104217;28;20052;-69
2024/01/13 11:12:49;;;;;;;0.40;0.40;;;;;;;3.49;100.00;98868.59;5105490;28;20601;-69
2024/01/13 11:15:20;;;;;;;0.77;0.77;;;;;;;3.47;100.00;98860.91;5105357;28;20027;-68
2024/01/13 11:17:46;;;;;;;9.40;1.50;;;;;;;3.45;100.00;98857.47;5105373;28;20105;-69
2024/01/13 11:20:12;;;;;;;0.82;0.75;;;;;;;3.40;100.00;98850.66;5105383;28;20032;-69
2024/01/13 11:22:42;;;;;;;5.72;0.65;;;;;;;3.42;100.00;98844.66;5104531;28;20035;-68
2024/01/13 11:25:28;;;;;;;2.45;2.13;;;;;;;3.29;100.00;98819.94;5108887;28;20035;-69